Time;durP1;ratioP1;P1;durP2;ratioP2;P2;SDS_P1;SDS_P2;PMS_P1;PMS_P2;Temp;Humidity;BMP_temperature;BMP_pressure;BME280_temperature;BME280_humidity;BME280_pressure;Samples;Min_cycle;Max_cycle;Signal;HPM_P1;HPM_P2
2021/12/26 00:00:14;;;;;;;;;;;-0.40;99.90;;;;;;4959837;29;20031;-78
2021/12/26 00:02:40;;;;;;;31.13;12.02;;;-0.30;99.90;;;;;;4955440;28;19907;-80
2021/12/26 00:05:06;;;;;;;;;;;-0.20;99.90;;;;;;4954103;28;20031;-77
2021/12/26 00:07:31;;;;;;;19.92;7.30;;;-0.30;99.90;;;;;;4969271;28;19917;-78
2021/12/26 00:09:57;;;;;;;;;;;-0.30;99.90;;;;;;4970184;28;20027;-78
2021/12/26 00:12:23;;;;;;;15.88;6.93;;;-0.30;99.90;;;;;;4956016;29;19913;-79
2021/12/26 00:14:48;;;;;;;;;;;-0.30;99.90;;;;;;4969884;28;20043;-77
2021/12/26 00:17:14;;;;;;;17.08;9.30;;;-0.30;99.90;;;;;;4967898;28;19906;-78
2021/12/26 00:19:40;;;;;;;15.45;8.32;;;-0.20;99.90;;;;;;4955929;29;20506;-79
2021/12/26 00:22:06;;;;;;;;;;;-0.30;99.90;;;;;;4951689;29;20027;-77
2021/12/26 00:24:32;;;;;;;13.57;5.93;;;-0.20;99.90;;;;;;4965809;28;19961;-77
2021/12/26 00:26:57;;;;;;;;;;;-0.30;99.90;;;;;;4954766;28;20033;-78
2021/12/26 00:29:23;;;;;;;13.35;6.95;;;-0.30;99.90;;;;;;4968907;28;19906;-78
2021/12/26 00:31:48;;;;;;;;;;;-0.30;99.90;;;;;;4953462;29;20031;-78
2021/12/26 00:34:14;;;;;;;11.68;6.82;;;-0.30;99.90;;;;;;4953798;28;19918;-78
2021/12/26 00:36:40;;;;;;;;;;;-0.30;99.90;;;;;;4953285;29;20016;-77
2021/12/26 00:39:06;;;;;;;10.88;5.82;;;-0.20;99.90;;;;;;4967743;28;19906;-79
2021/12/26 00:41:32;;;;;;;8.88;5.20;;;-0.20;99.90;;;;;;4952401;29;20523;-79
2021/12/26 00:43:57;;;;;;;;;;;-0.20;99.90;;;;;;4955355;28;20031;-77
2021/12/26 00:46:25;;;;;;;10.63;5.72;;;-0.30;99.90;;;;;;4956230;29;19911;-78
2021/12/26 00:48:51;;;;;;;7.82;4.35;;;-0.30;99.90;;;;;;4956534;28;20110;-78
2021/12/26 00:51:16;;;;;;;;;;;-0.30;99.90;;;;;;4957332;28;20051;-78
2021/12/26 00:53:42;;;;;;;10.55;5.00;;;-0.30;99.90;;;;;;4956272;29;19922;-79
2021/12/26 00:56:07;;;;;;;;;;;-0.30;99.90;;;;;;4959658;28;20098;-78
2021/12/26 00:58:33;;;;;;;11.20;5.65;;;-0.30;99.90;;;;;;4965966;29;19906;-79
2021/12/26 01:00:59;;;;;;;;;;;-0.20;99.90;;;;;;4964693;29;20041;-80
2021/12/26 01:03:24;;;;;;;14.75;7.85;;;-0.30;99.90;;;;;;4989129;28;19953;-79
2021/12/26 01:05:52;;;;;;;;;;;-0.30;99.90;;;;;;4965091;29;20079;-79
2021/12/26 01:08:21;;;;;;;15.85;8.00;;;-0.20;99.90;;;;;;4961971;28;19956;-79
2021/12/26 01:10:55;;;;;;;18.90;9.05;;;-0.30;99.90;;;;;;4960951;29;20117;-78
2021/12/26 01:13:35;;;;;;;10.75;6.32;;;-0.30;99.90;;;;;;4961478;29;20091;-78
2021/12/26 01:16:04;;;;;;;14.25;8.18;;;-0.30;99.90;;;;;;4963385;28;20094;-78
2021/12/26 01:18:34;;;;;;;13.95;8.00;;;-0.30;99.90;;;;;;4962047;29;20502;-79
2021/12/26 01:21:09;;;;;;;12.75;7.55;;;-0.30;99.90;;;;;;4958276;29;20451;-77
2021/12/26 01:23:35;;;;;;;12.52;7.55;;;-0.30;99.90;;;;;;4957515;29;20031;-77
2021/12/26 01:26:01;;;;;;;;;;;-0.40;99.90;;;;;;4956330;29;20113;-78
2021/12/26 01:28:28;;;;;;;11.35;5.88;;;-0.30;99.90;;;;;;4955891;28;19916;-78
2021/12/26 01:30:57;;;;;;;7.15;4.63;;;-0.30;99.90;;;;;;4957047;29;20027;-79
2021/12/26 01:33:24;;;;;;;9.60;5.05;;;-0.30;99.90;;;;;;4957308;28;20555;-78
2021/12/26 01:35:51;;;;;;;7.97;4.88;;;-0.30;99.90;;;;;;4956087;29;20035;-78
2021/12/26 01:38:18;;;;;;;8.40;5.22;;;-0.30;99.90;;;;;;4955543;28;20027;-77
2021/12/26 01:40:48;;;;;;;7.35;3.88;;;-0.30;99.90;;;;;;4956481;29;20058;-78
2021/12/26 01:43:16;;;;;;;7.95;3.95;;;-0.30;99.90;;;;;;4956352;28;20019;-78
2021/12/26 01:45:42;;;;;;;9.90;4.60;;;-0.30;99.90;;;;;;4956020;28;20039;-78
2021/12/26 01:48:08;;;;;;;10.77;6.03;;;-0.30;99.90;;;;;;4956294;28;20023;-77
2021/12/26 01:50:35;;;;;;;7.90;3.55;;;-0.40;99.90;;;;;;4956748;29;20027;-78
2021/12/26 01:53:02;;;;;;;7.38;3.78;;;-0.30;99.90;;;;;;4956433;28;20439;-78
2021/12/26 01:55:39;;;;;;;6.10;3.10;;;-0.30;99.90;;;;;;4955329;28;20027;-78
2021/12/26 01:58:07;;;;;;;5.30;2.92;;;-0.30;99.90;;;;;;4956642;28;20027;-77
2021/12/26 02:00:34;;;;;;;6.85;3.35;;;-0.40;99.90;;;;;;4955466;28;20413;-78
2021/12/26 02:03:00;;;;;;;4.97;2.65;;;-0.30;99.90;;;;;;4957266;29;20031;-78
2021/12/26 02:05:26;;;;;;;10.20;5.78;;;-0.30;99.90;;;;;;4955843;29;20034;-79
2021/12/26 02:07:52;;;;;;;;;;;-0.40;99.90;;;;;;4957317;29;20118;-78
2021/12/26 02:10:18;;;;;;;7.68;4.28;;;-0.40;99.90;;;;;;4956533;29;20161;-78
2021/12/26 02:12:43;;;;;;;;;;;-0.40;99.90;;;;;;4976149;28;20514;-79
2021/12/26 02:15:10;;;;;;;7.22;4.22;;;-0.40;99.90;;;;;;4981286;28;19914;-79
2021/12/26 02:17:36;;;;;;;10.50;6.35;;;-0.30;99.90;;;;;;4958256;29;20035;-78
2021/12/26 02:20:31;;;;;;;;;;;-0.30;99.90;;;;;;4958859;29;20023;-78
2021/12/26 02:23:04;;;;;;;13.98;7.55;;;-0.40;99.90;;;;;;4973447;28;19934;-78
2021/12/26 02:27:30;;;;;;;11.80;7.10;;;-0.40;99.90;;;;;;4958187;29;20034;-79
2021/12/26 02:28:17;;;;;;;11.40;7.00;;;-0.40;99.90;;;;;;4964470;29;20118;-79
2021/12/26 02:30:43;;;;;;;11.75;6.70;;;-0.40;99.90;;;;;;4972062;28;20024;-79
2021/12/26 02:33:11;;;;;;;7.55;4.85;;;-0.50;99.90;;;;;;4971822;28;20081;-79
2021/12/26 02:35:38;;;;;;;9.63;5.53;;;-0.40;99.90;;;;;;4960752;29;20023;-79
2021/12/26 02:38:05;;;;;;;11.65;5.35;;;-0.40;99.90;;;;;;4960745;29;20046;-78
2021/12/26 02:40:31;;;;;;;8.82;5.03;;;-0.50;99.90;;;;;;4972270;28;20122;-78
2021/12/26 02:42:56;;;;;;;;;;;-0.50;99.90;;;;;;4955553;28;20096;-78
2021/12/26 02:45:22;;;;;;;12.32;5.50;;;-0.50;99.90;;;;;;4969322;28;20295;-78
2021/12/26 02:47:49;;;;;;;;;;;-0.50;99.90;;;;;;4955879;29;20034;-78
2021/12/26 02:50:24;;;;;;;10.60;5.70;;;-0.50;99.90;;;;;;4981083;28;19914;-78
2021/12/26 02:52:50;;;;;;;11.57;6.47;;;-0.50;99.90;;;;;;4982296;28;20035;-80
2021/12/26 02:55:19;;;;;;;11.07;6.20;;;-0.50;99.90;;;;;;4959431;28;20136;-78
2021/12/26 02:58:00;;;;;;;15.48;7.18;;;-0.40;99.90;;;;;;4956813;29;20059;-78
2021/12/26 03:00:29;;;;;;;15.50;8.48;;;-0.50;99.90;;;;;;4953849;29;20037;-77
2021/12/26 03:02:57;;;;;;;16.98;9.30;;;-0.50;99.90;;;;;;4954866;29;20038;-78
2021/12/26 03:05:26;;;;;;;16.33;10.20;;;-0.50;99.90;;;;;;4955156;28;20035;-78
2021/12/26 03:07:52;;;;;;;19.55;11.43;;;-0.50;99.90;;;;;;4954606;28;20035;-78
2021/12/26 03:10:23;;;;;;;;;;;-0.50;99.90;;;;;;4955312;28;20030;-78
2021/12/26 03:12:51;;;;;;;28.95;16.10;;;-0.50;99.90;;;;;;4957526;28;20387;-79
2021/12/26 03:15:17;;;;;;;30.17;18.17;;;-0.50;99.90;;;;;;4955471;29;20089;-78
2021/12/26 03:17:43;;;;;;;29.75;17.23;;;-0.50;99.90;;;;;;4968962;28;20106;-77
2021/12/26 03:20:09;;;;;;;;;;;-0.50;99.90;;;;;;4953122;29;20558;-77
2021/12/26 03:22:36;;;;;;;24.63;14.07;;;-0.50;99.90;;;;;;4968226;28;19917;-78
2021/12/26 03:25:03;;;;;;;22.92;13.80;;;-0.50;99.90;;;;;;4954158;28;20027;-78
2021/12/26 03:27:29;;;;;;;29.17;16.60;;;-0.40;99.90;;;;;;4952699;29;20038;-77
2021/12/26 03:29:54;;;;;;;;;;;-0.40;99.90;;;;;;4959491;28;20031;-78
2021/12/26 03:32:20;;;;;;;22.52;11.93;;;-0.40;99.90;;;;;;4964789;29;20455;-79
2021/12/26 03:34:46;;;;;;;;;;;-0.40;99.90;;;;;;4964152;28;20415;-79
2021/12/26 03:37:12;;;;;;;18.90;10.90;;;-0.40;99.90;;;;;;4979996;28;19917;-79
2021/12/26 03:39:38;;;;;;;;;;;-0.40;99.90;;;;;;4965256;29;20031;-79
2021/12/26 03:42:04;;;;;;;15.75;9.02;;;-0.40;99.90;;;;;;4979848;28;19914;-79
2021/12/26 03:44:29;;;;;;;15.40;9.32;;;-0.40;99.90;;;;;;4964438;29;20035;-79
2021/12/26 03:46:55;;;;;;;;;;;-0.40;99.90;;;;;;4981136;28;20040;-78
2021/12/26 03:49:21;;;;;;;16.75;8.32;;;-0.40;99.90;;;;;;4965152;29;19911;-79
2021/12/26 03:51:46;;;;;;;;;;;-0.40;99.90;;;;;;4964091;29;20019;-78
2021/12/26 03:54:13;;;;;;;14.30;7.95;;;-0.30;99.90;;;;;;4978653;28;20347;-79
2021/12/26 03:56:39;;;;;;;18.15;9.32;;;-0.40;99.90;;;;;;4963689;28;20081;-79
2021/12/26 03:59:04;;;;;;;;;;;-0.50;99.90;;;;;;4967051;28;20404;-79
2021/12/26 04:01:30;;;;;;;20.92;10.60;;;-0.50;99.90;;;;;;4989932;28;19910;-79
2021/12/26 04:03:56;;;;;;;;;;;-0.50;99.90;;;;;;4966322;28;20031;-78
2021/12/26 04:06:22;;;;;;;18.90;9.10;;;-0.50;99.90;;;;;;4966232;28;19945;-78
2021/12/26 04:08:47;;;;;;;;;;;-0.50;99.90;;;;;;4955003;28;20031;-78
2021/12/26 04:11:13;;;;;;;12.73;7.22;;;-0.60;99.90;;;;;;4970626;28;19925;-78
2021/12/26 04:13:39;;;;;;;;;;;-0.60;99.90;;;;;;4954899;29;20031;-78
2021/12/26 04:16:05;;;;;;;12.48;5.90;;;-0.60;99.90;;;;;;4953440;29;20476;-77
2021/12/26 04:18:30;;;;;;;;;;;-0.60;99.90;;;;;;4957954;28;20038;-78
2021/12/26 04:20:56;;;;;;;12.32;5.93;;;-0.70;99.90;;;;;;4974896;28;19910;-78
2021/12/26 04:23:22;;;;;;;;;;;-0.70;99.90;;;;;;4964158;28;20087;-78
2021/12/26 04:25:48;;;;;;;10.82;4.95;;;-0.70;99.90;;;;;;4979352;28;20394;-78
2021/12/26 04:28:17;;;;;;;;;;;-0.70;99.90;;;;;;4956189;29;20035;-78
2021/12/26 04:30:43;;;;;;;11.13;4.18;;;-0.80;99.90;;;;;;4971951;28;19984;-78
2021/12/26 04:33:10;;;;;;;8.48;3.55;;;-0.80;99.90;;;;;;4954004;29;20094;-77
2021/12/26 04:35:35;;;;;;;7.93;3.88;;;-0.80;99.90;;;;;;4970250;28;20038;-77
2021/12/26 04:38:01;;;;;;;;;;;-0.80;99.90;;;;;;4955563;29;20031;-77
2021/12/26 04:40:27;;;;;;;13.27;4.07;;;-0.80;99.90;;;;;;4955666;28;19925;-77
2021/12/26 04:42:53;;;;;;;;;;;-0.80;99.90;;;;;;4958656;28;20137;-77
2021/12/26 04:45:18;;;;;;;10.50;5.32;;;-0.80;99.90;;;;;;4975333;28;20303;-78
2021/12/26 04:47:44;;;;;;;;;;;-0.80;99.90;;;;;;4959481;29;20519;-78
2021/12/26 04:50:13;;;;;;;14.15;5.15;;;-0.80;99.90;;;;;;4974543;28;19934;-77
2021/12/26 04:52:42;;;;;;;14.48;6.40;;;-0.80;99.90;;;;;;4959604;29;20039;-79
2021/12/26 04:55:08;;;;;;;15.70;6.53;;;-0.90;99.90;;;;;;4958738;29;20475;-78
2021/12/26 04:57:34;;;;;;;19.70;8.35;;;-0.90;99.90;;;;;;4974622;28;20047;-77
2021/12/26 04:59:59;;;;;;;;;;;-0.90;99.90;;;;;;4959151;29;20122;-78
2021/12/26 05:02:27;;;;;;;23.45;9.20;;;-0.90;99.90;;;;;;4960028;29;20593;-78
2021/12/26 05:04:54;;;;;;;20.52;8.75;;;-1.00;99.90;;;;;;4958837;29;20048;-77
2021/12/26 05:07:20;;;;;;;19.70;8.50;;;-1.00;99.90;;;;;;4959915;29;20114;-78
2021/12/26 05:09:46;;;;;;;;;;;-1.00;99.90;;;;;;4960490;28;20050;-79
2021/12/26 05:12:12;;;;;;;25.23;7.90;;;-0.90;99.90;;;;;;4972950;28;19910;-78
2021/12/26 05:14:37;;;;;;;;;;;-1.00;99.90;;;;;;4973337;28;20039;-78
2021/12/26 05:17:03;;;;;;;9.90;4.18;;;-1.00;99.90;;;;;;4972762;28;19928;-78
2021/12/26 05:19:29;;;;;;;;;;;-1.00;99.90;;;;;;4957606;29;20541;-78
2021/12/26 05:21:54;;;;;;;7.80;3.92;;;-1.00;99.90;;;;;;4958567;28;20023;-78
2021/12/26 05:24:20;;;;;;;;;;;-1.00;99.90;;;;;;4956871;29;20031;-79
2021/12/26 05:26:46;;;;;;;10.80;5.22;;;-1.10;99.90;;;;;;4961748;29;19913;-78
2021/12/26 05:29:11;;;;;;;;;;;-1.00;99.90;;;;;;4965211;28;20027;-78
2021/12/26 05:31:37;;;;;;;13.40;6.18;;;-1.10;99.90;;;;;;4956377;29;19910;-78
2021/12/26 05:34:02;;;;;;;;;;;-1.00;99.90;;;;;;4956619;29;20051;-78
2021/12/26 05:36:28;;;;;;;16.80;7.50;;;-1.00;99.90;;;;;;4955737;28;19917;-78
2021/12/26 05:38:55;;;;;;;;;;;-1.10;99.90;;;;;;4956504;29;20603;-78
2021/12/26 05:41:21;;;;;;;22.10;9.80;;;-1.10;99.90;;;;;;4957070;28;19910;-78
2021/12/26 05:43:46;;;;;;;;;;;-1.10;99.90;;;;;;4959663;28;20047;-79
2021/12/26 05:46:12;;;;;;;13.52;7.35;;;-1.10;99.90;;;;;;4974176;28;19914;-78
2021/12/26 05:48:38;;;;;;;;;;;-1.00;99.90;;;;;;4960362;29;20023;-78
2021/12/26 05:51:03;;;;;;;19.63;9.27;;;-1.00;99.90;;;;;;4975073;28;19910;-78
2021/12/26 05:53:29;;;;;;;;;;;-1.10;99.90;;;;;;4960323;29;20086;-78
2021/12/26 05:55:55;;;;;;;18.95;8.20;;;-1.10;99.90;;;;;;4972833;28;19918;-78
2021/12/26 05:58:20;;;;;;;;;;;-1.10;99.90;;;;;;4961312;28;20073;-79
2021/12/26 06:00:46;;;;;;;12.10;5.53;;;-1.10;99.90;;;;;;4988777;28;19914;-78
2021/12/26 06:03:12;;;;;;;;;;;-1.10;99.90;;;;;;4959557;29;20035;-78
2021/12/26 06:05:37;;;;;;;13.68;5.28;;;-1.10;99.90;;;;;;4971205;28;19917;-79
2021/12/26 06:08:03;;;;;;;;;;;-1.10;99.90;;;;;;4957901;29;20031;-78
2021/12/26 06:10:29;;;;;;;9.95;5.05;;;-1.10;99.90;;;;;;4971937;28;19991;-78
2021/12/26 06:12:54;;;;;;;;;;;-1.20;99.90;;;;;;4958260;29;20053;-77
2021/12/26 06:15:20;;;;;;;13.18;6.03;;;-1.20;99.90;;;;;;4972533;28;19918;-78
2021/12/26 06:17:45;;;;;;;;;;;-1.10;99.90;;;;;;4956806;29;20038;-78
2021/12/26 06:20:14;;;;;;;8.32;5.13;;;-1.10;99.90;;;;;;4971493;28;20363;-79
2021/12/26 06:22:44;;;;;;;13.30;5.82;;;-1.10;99.90;;;;;;4957275;29;20504;-77
2021/12/26 06:25:11;;;;;;;10.60;5.55;;;-1.10;99.90;;;;;;4955822;29;20039;-77
2021/12/26 06:27:37;;;;;;;14.38;6.60;;;-1.10;99.90;;;;;;4955630;29;20031;-78
2021/12/26 06:30:06;;;;;;;;;;;-1.10;99.90;;;;;;4955984;29;20039;-78
2021/12/26 06:32:31;;;;;;;9.93;4.13;;;-1.10;99.90;;;;;;4972072;28;20389;-77
2021/12/26 06:34:57;;;;;;;;;;;-1.10;99.90;;;;;;4957339;29;20154;-78
2021/12/26 06:37:23;;;;;;;10.27;3.90;;;-1.10;99.90;;;;;;4972802;28;19910;-78
2021/12/26 06:39:48;;;;;;;;;;;-1.20;99.90;;;;;;4974868;28;20027;-79
2021/12/26 06:42:14;;;;;;;8.75;4.30;;;-1.20;99.90;;;;;;4960344;28;19917;-79
2021/12/26 06:44:39;;;;;;;;;;;-1.20;99.90;;;;;;4975355;28;20047;-79
2021/12/26 06:47:06;;;;;;;13.77;7.35;;;-1.20;99.90;;;;;;4960549;29;19989;-77
2021/12/26 06:49:32;;;;;;;19.20;10.98;;;-1.20;99.90;;;;;;4961256;29;20037;-79
2021/12/26 06:51:58;;;;;;;;;;;-1.20;99.90;;;;;;4960098;29;20118;-78
2021/12/26 06:54:23;;;;;;;23.63;10.95;;;-1.20;99.90;;;;;;4979583;28;19949;-78
2021/12/26 06:56:49;;;;;;;;;;;-1.20;99.90;;;;;;4964977;29;20504;-78
2021/12/26 06:59:15;;;;;;;66.25;29.15;;;-1.10;99.90;;;;;;4971955;28;19906;-77
2021/12/26 07:01:41;;;;;;;;;;;-1.10;99.90;;;;;;4954867;29;20051;-78
2021/12/26 07:04:07;;;;;;;82.90;37.60;;;-1.10;99.90;;;;;;4970843;28;19913;-79
2021/12/26 07:06:32;;;;;;;;;;;-1.10;99.90;;;;;;4956000;29;20035;-78
2021/12/26 07:08:58;;;;;;;65.13;33.05;;;-1.10;99.90;;;;;;4971170;28;19916;-78
2021/12/26 07:11:24;;;;;;;;;;;-1.00;99.90;;;;;;4957622;29;20474;-78
2021/12/26 07:13:52;;;;;;;77.63;40.75;;;-1.00;99.90;;;;;;4968437;28;19918;-79
2021/12/26 07:16:22;;;;;;;63.20;31.17;;;-0.90;99.90;;;;;;4966948;28;20023;-79
2021/12/26 07:18:50;;;;;;;55.25;27.80;;;-0.90;99.90;;;;;;4969949;29;20094;-79
2021/12/26 07:21:20;;;;;;;42.35;22.70;;;-0.90;99.90;;;;;;4957931;29;20078;-79
2021/12/26 07:23:45;;;;;;;33.22;19.52;;;-0.80;99.90;;;;;;4955744;29;20027;-77
2021/12/26 07:26:11;;;;;;;;;;;-0.80;99.90;;;;;;4956297;29;20030;-78
2021/12/26 07:28:37;;;;;;;52.80;30.33;;;-0.80;99.90;;;;;;4957410;29;20650;-78
2021/12/26 07:31:03;;;;;;;;;;;-0.80;99.90;;;;;;4958327;28;20423;-77
2021/12/26 07:33:28;;;;;;;46.95;26.90;;;-0.80;99.90;;;;;;4954272;28;20417;-78
2021/12/26 07:35:54;;;;;;;;;;;-0.80;99.90;;;;;;4960030;29;20031;-79
2021/12/26 07:38:22;;;;;;;18.25;9.73;;;-0.70;99.90;;;;;;4979246;28;19910;-78
2021/12/26 07:40:48;;;;;;;14.90;7.32;;;-0.70;99.90;;;;;;4957335;29;20055;-78
2021/12/26 07:43:14;;;;;;;;;;;-0.70;99.90;;;;;;4958753;28;20504;-77
2021/12/26 07:45:40;;;;;;;38.28;19.13;;;-0.70;99.90;;;;;;4970499;28;20429;-78
2021/12/26 07:48:05;;;;;;;28.95;14.10;;;-0.60;99.90;;;;;;4958257;28;20097;-78
2021/12/26 07:50:31;;;;;;;;;;;-0.50;99.90;;;;;;4959234;29;20095;-78
2021/12/26 07:53:03;;;;;;;19.85;10.10;;;-0.50;99.90;;;;;;4976045;28;19910;-78
2021/12/26 07:55:29;;;;;;;26.17;13.13;;;-0.50;99.90;;;;;;4976313;28;20042;-76
2021/12/26 07:57:54;;;;;;;;;;;-0.40;99.90;;;;;;4973942;28;20027;-80
2021/12/26 08:00:20;;;;;;;31.23;13.55;;;-0.40;99.90;;;;;;4960412;29;19910;-78
2021/12/26 08:02:46;;;;;;;;;;;-0.30;99.90;;;;;;4964145;29;20033;-80
2021/12/26 08:05:12;;;;;;;25.67;13.70;;;-0.20;99.90;;;;;;4977428;28;19910;-79
2021/12/26 08:07:38;;;;;;;39.40;20.60;;;-0.20;99.90;;;;;;4962525;29;20270;-78
2021/12/26 08:10:04;;;;;;;;;;;-0.10;99.90;;;;;;4960265;28;20031;-79
2021/12/26 08:12:30;;;;;;;18.67;9.35;;;-0.10;99.90;;;;;;4977845;28;19910;-79
2021/12/26 08:14:55;;;;;;;;;;;0.00;99.90;;;;;;4966107;28;20131;-79
2021/12/26 08:17:21;;;;;;;13.18;6.13;;;0.20;99.90;;;;;;4984601;28;19965;-80
2021/12/26 08:19:47;;;;;;;;;;;0.10;99.90;;;;;;4981826;28;20038;-80
2021/12/26 08:22:12;;;;;;;15.60;7.72;;;0.20;99.90;;;;;;4989954;28;19908;-79
2021/12/26 08:24:38;;;;;;;;;;;0.10;99.90;;;;;;4969308;29;20069;-79
2021/12/26 08:27:04;;;;;;;28.90;14.88;;;0.20;99.90;;;;;;4965294;29;19910;-79
2021/12/26 08:29:29;;;;;;;;;;;0.20;99.90;;;;;;4963902;29;20086;-80
2021/12/26 08:31:56;;;;;;;26.65;10.23;;;0.30;99.90;;;;;;4980384;28;20390;-78
2021/12/26 08:34:23;;;;;;;17.75;9.60;;;0.30;99.90;;;;;;4963916;28;20043;-79
2021/12/26 08:36:58;;;;;;;12.32;7.88;;;0.40;99.90;;;;;;4965420;29;20444;-78
2021/12/26 08:39:25;;;;;;;12.10;6.53;;;0.50;99.90;;;;;;4964259;29;20028;-79
2021/12/26 08:41:51;;;;;;;8.52;5.00;;;0.60;99.90;;;;;;4965325;29;20042;-79
2021/12/26 08:44:16;;;;;;;;;;;0.80;99.90;;;;;;4963141;28;20050;-81
2021/12/26 08:46:43;;;;;;;13.50;7.03;;;0.90;99.90;;;;;;4963964;28;19968;-75
2021/12/26 08:49:10;;;;;;;15.93;8.98;;;1.00;99.90;;;;;;4963448;29;20099;-76
2021/12/26 08:51:35;;;;;;;41.88;21.23;;;1.20;99.90;;;;;;4962291;29;20031;-77
2021/12/26 08:54:02;;;;;;;;;;;1.40;99.90;;;;;;4962446;29;20039;-77
2021/12/26 08:56:29;;;;;;;19.83;9.20;;;1.50;99.90;;;;;;4976756;28;20333;-78
2021/12/26 08:58:55;;;;;;;36.17;17.70;;;1.60;99.90;;;;;;4960921;28;20071;-77
2021/12/26 09:01:20;;;;;;;;;;;1.70;99.90;;;;;;4972260;28;20551;-77
2021/12/26 09:03:46;;;;;;;119.32;62.15;;;1.90;99.90;;;;;;4978449;28;19917;-77
2021/12/26 09:06:12;;;;;;;;;;;1.90;99.90;;;;;;4961365;28;20575;-75
2021/12/26 09:08:37;;;;;;;12.18;6.55;;;1.90;99.90;;;;;;4959946;29;19906;-77
2021/12/26 09:11:03;;;;;;;;;;;1.80;99.90;;;;;;4959958;29;20031;-77
2021/12/26 09:13:29;;;;;;;10.48;5.05;;;1.70;99.90;;;;;;4976862;28;19921;-78
2021/12/26 09:15:54;;;;;;;;;;;1.70;99.90;;;;;;4961158;29;20548;-76
2021/12/26 09:18:20;;;;;;;15.25;8.98;;;1.60;99.90;;;;;;4976842;28;19920;-75
2021/12/26 09:20:45;;;;;;;;;;;1.50;99.90;;;;;;4962199;28;20113;-76
2021/12/26 09:23:11;;;;;;;8.70;4.57;;;1.60;99.90;;;;;;4964358;28;19984;-76
2021/12/26 09:25:36;;;;;;;;;;;1.60;99.90;;;;;;4959380;28;20053;-77
2021/12/26 09:28:02;;;;;;;28.33;13.00;;;1.60;95.10;;;;;;4955948;28;19922;-76
2021/12/26 09:30:28;;;;;;;;;;;1.60;99.70;;;;;;4974717;28;20471;-76
2021/12/26 09:32:54;;;;;;;17.17;8.52;;;1.50;99.90;;;;;;4960504;28;19982;-76
2021/12/26 09:35:19;;;;;;;;;;;1.50;99.90;;;;;;4957257;28;20050;-76
2021/12/26 09:37:45;;;;;;;19.77;9.68;;;1.40;99.90;;;;;;4960731;28;20261;-76
2021/12/26 09:40:12;;;;;;;;;;;1.40;99.90;;;;;;4958475;28;20035;-75
2021/12/26 09:42:37;;;;;;;20.60;13.80;;;1.40;99.90;;;;;;4963688;28;19918;-77
2021/12/26 09:45:04;;;;;;;;;;;1.40;99.90;;;;;;4962244;28;20059;-76
2021/12/26 09:47:29;;;;;;;24.15;14.80;;;1.40;99.90;;;;;;4975033;28;19921;-76
2021/12/26 09:49:55;;;;;;;;;;;1.30;99.90;;;;;;4979974;28;20102;-76
2021/12/26 09:52:21;;;;;;;5.30;2.80;;;1.20;99.90;;;;;;4958469;28;20003;-78
2021/12/26 09:54:46;;;;;;;;;;;1.20;99.90;;;;;;4959144;28;20922;-76
2021/12/26 09:57:13;;;;;;;7.05;3.97;;;1.20;99.90;;;;;;4964771;28;19922;-76
2021/12/26 09:59:40;;;;;;;6.35;1.40;;;1.20;99.90;;;;;;4955186;28;20042;-76
2021/12/26 10:02:09;;;;;;;6.63;2.80;;;1.30;96.30;;;;;;4957544;28;20039;-76
2021/12/26 10:04:35;;;;;;;5.03;2.08;;;1.40;96.40;;;;;;4960529;28;20035;-77
2021/12/26 10:07:11;;;;;;;5.18;1.63;;;1.40;89.50;;;;;;4976694;28;20062;-76
2021/12/26 10:09:43;;;;;;;6.78;3.25;;;1.50;90.80;;;;;;4958155;28;20385;-76
2021/12/26 10:12:12;;;;;;;6.43;2.97;;;1.50;84.70;;;;;;4962788;28;20059;-75
2021/12/26 10:14:40;;;;;;;6.00;2.50;;;1.50;87.80;;;;;;4959504;28;20042;-76
2021/12/26 10:17:26;;;;;;;5.22;2.15;;;1.50;90.40;;;;;;4955431;28;20508;-77
2021/12/26 10:19:58;;;;;;;16.95;7.90;;;1.40;77.10;;;;;;4956298;29;20038;-77
2021/12/26 10:22:26;;;;;;;8.65;3.72;;;1.50;78.20;;;;;;4956000;28;20024;-77
2021/12/26 10:24:55;;;;;;;5.13;1.92;;;1.60;84.10;;;;;;4957740;29;20051;-78
2021/12/26 10:27:24;;;;;;;3.90;1.40;;;1.70;88.60;;;;;;4961810;28;20042;-78
2021/12/26 10:29:51;;;;;;;5.25;2.25;;;1.80;79.50;;;;;;4959919;29;20085;-78
2021/12/26 10:32:23;;;;;;;4.47;1.35;;;1.90;82.50;;;;;;4955068;28;20023;-77
2021/12/26 10:34:57;;;;;;;4.55;1.98;;;1.90;78.80;;;;;;4951962;29;20046;-76
2021/12/26 10:37:41;;;;;;;4.32;2.20;;;2.00;77.10;;;;;;4954426;29;20023;-78
2021/12/26 10:40:15;;;;;;;4.15;1.60;;;2.20;78.60;;;;;;4958781;29;20019;-79
2021/12/26 10:42:46;;;;;;;8.77;2.28;;;2.30;74.40;;;;;;4955057;28;20037;-79
2021/12/26 10:45:15;;;;;;;8.40;2.60;;;2.40;77.60;;;;;;4955031;28;20046;-77
2021/12/26 10:47:45;;;;;;;3.40;1.25;;;2.60;82.50;;;;;;4951518;29;20058;-77
2021/12/26 10:50:14;;;;;;;20.40;13.15;;;2.70;74.90;;;;;;4952216;28;20039;-77
2021/12/26 10:52:59;;;;;;;25.20;6.90;;;2.60;74.40;;;;;;4950989;28;20062;-77
2021/12/26 10:55:29;;;;;;;19.67;6.53;;;2.60;74.10;;;;;;4954355;29;20035;-77
2021/12/26 10:57:55;;;;;;;9.25;3.83;;;2.50;76.50;;;;;;4954389;29;20046;-75
2021/12/26 11:00:23;;;;;;;6.57;2.75;;;2.50;74.50;;;;;;4951918;29;20035;-77
2021/12/26 11:03:00;;;;;;;8.13;3.80;;;2.50;73.60;;;;;;4953313;29;20066;-77
2021/12/26 11:05:30;;;;;;;9.85;3.85;;;2.50;75.60;;;;;;4954660;29;20102;-77
2021/12/26 11:08:02;;;;;;;7.55;3.67;;;2.50;77.30;;;;;;4955372;28;20042;-78
2021/12/26 11:10:36;;;;;;;11.63;5.32;;;2.50;81.30;;;;;;4968218;28;20030;-77
2021/12/26 11:13:05;;;;;;;6.18;3.13;;;2.60;77.00;;;;;;4952391;29;20447;-77
2021/12/26 11:15:37;;;;;;;6.88;3.17;;;2.70;74.30;;;;;;4953757;29;20042;-76
2021/12/26 11:18:11;;;;;;;6.85;3.00;;;2.50;81.10;;;;;;4957507;29;20073;-76
2021/12/26 11:20:41;;;;;;;10.65;5.35;;;2.40;87.00;;;;;;4953347;29;20043;-76
2021/12/26 11:23:30;;;;;;;14.90;7.70;;;2.40;90.40;;;;;;4952552;28;20595;-75
2021/12/26 11:25:59;;;;;;;18.88;8.20;;;2.60;88.30;;;;;;4953601;28;20047;-77
2021/12/26 11:28:28;;;;;;;22.40;12.70;;;2.40;90.60;;;;;;4953352;28;20090;-77
2021/12/26 11:30:57;;;;;;;17.13;6.75;;;2.50;91.50;;;;;;4953533;28;20070;-76
2021/12/26 11:33:23;;;;;;;16.98;7.60;;;2.40;90.60;;;;;;4951364;29;20424;-77
2021/12/26 11:35:49;;;;;;;;;;;2.50;90.10;;;;;;4952129;29;20102;-76
2021/12/26 11:38:19;;;;;;;25.58;12.65;;;2.50;94.50;;;;;;4953266;28;19910;-76
2021/12/26 11:40:50;;;;;;;22.50;9.75;;;2.50;94.10;;;;;;4952181;29;20031;-76
2021/12/26 11:43:55;;;;;;;15.52;8.27;;;2.60;95.20;;;;;;4952620;28;20098;-76
2021/12/26 11:46:45;;;;;;;11.02;5.55;;;2.50;94.10;;;;;;4954360;29;20054;-76
2021/12/26 11:49:33;;;;;;;14.70;5.82;;;2.40;93.40;;;;;;4953461;29;20027;-78
2021/12/26 11:52:11;;;;;;;8.55;4.57;;;2.40;96.80;;;;;;4972094;28;20035;-78
2021/12/26 11:55:04;;;;;;;7.05;3.47;;;2.40;97.20;;;;;;4953389;29;20046;-76
2021/12/26 11:57:51;;;;;;;20.15;4.97;;;2.40;96.30;;;;;;4951256;29;20052;-76
2021/12/26 12:00:29;;;;;;;15.40;8.53;;;2.30;98.60;;;;;;4950420;28;20126;-77
2021/12/26 12:02:58;;;;;;;14.70;7.88;;;2.20;99.90;;;;;;4966767;28;20027;-75
2021/12/26 12:05:40;;;;;;;13.85;6.55;;;2.20;99.90;;;;;;4950001;29;20047;-77
2021/12/26 12:08:16;;;;;;;16.73;6.68;;;2.10;99.90;;;;;;4969464;28;20089;-77
2021/12/26 12:10:44;;;;;;;9.18;4.75;;;2.00;99.90;;;;;;4954340;29;20082;-79
2021/12/26 12:13:33;;;;;;;14.77;7.65;;;2.00;99.90;;;;;;4957000;28;20452;-77
2021/12/26 12:16:04;;;;;;;11.18;6.32;;;1.90;99.90;;;;;;4941957;29;20101;-76
2021/12/26 12:18:30;;;;;;;10.35;5.97;;;1.90;99.90;;;;;;4949451;28;20034;-77
2021/12/26 12:21:09;;;;;;;;;;;2.00;99.90;;;;;;4954809;28;20035;-77
2021/12/26 12:23:55;;;;;;;7.18;3.53;;;1.90;99.90;;;;;;4972169;28;19922;-76
2021/12/26 12:26:42;;;;;;;13.82;6.68;;;2.00;99.90;;;;;;4953973;28;20059;-75
2021/12/26 12:29:24;;;;;;;9.77;5.13;;;2.00;99.90;;;;;;4950418;29;20472;-77
2021/12/26 12:32:09;;;;;;;11.13;5.00;;;2.00;99.90;;;;;;4952229;28;20078;-78
2021/12/26 12:34:59;;;;;;;10.10;4.57;;;2.00;99.90;;;;;;4954005;28;20406;-76
2021/12/26 12:37:28;;;;;;;8.65;4.32;;;2.00;99.90;;;;;;4956916;29;20023;-78
2021/12/26 12:40:29;;;;;;;10.90;4.80;;;2.10;99.90;;;;;;4954148;28;20209;-76
2021/12/26 12:43:08;;;;;;;8.43;4.28;;;2.10;99.90;;;;;;4954702;28;20027;-76
2021/12/26 12:45:58;;;;;;;7.57;3.67;;;2.10;99.90;;;;;;4955737;29;20125;-75
2021/12/26 12:48:41;;;;;;;4.80;2.83;;;2.10;99.90;;;;;;4963155;29;20042;-77
2021/12/26 12:51:15;;;;;;;6.13;3.35;;;2.10;99.90;;;;;;4955275;29;20027;-75
2021/12/26 12:53:47;;;;;;;8.27;3.30;;;2.00;99.90;;;;;;4955349;28;20051;-75
2021/12/26 12:56:36;;;;;;;8.10;3.30;;;2.00;99.90;;;;;;4955628;28;20051;-78
2021/12/26 12:59:14;;;;;;;8.95;3.08;;;2.00;99.90;;;;;;4954946;29;20031;-77
2021/12/26 13:01:46;;;;;;;12.93;5.63;;;2.00;99.80;;;;;;4955500;29;20031;-78
2021/12/26 13:04:13;;;;;;;7.30;3.50;;;2.00;98.10;;;;;;4955131;28;20037;-78
2021/12/26 13:06:52;;;;;;;7.97;3.63;;;2.00;96.70;;;;;;4954935;29;20051;-77
2021/12/26 13:09:18;;;;;;;7.10;3.22;;;2.00;95.00;;;;;;4956077;29;20039;-77
2021/12/26 13:11:44;;;;;;;;;;;2.00;92.60;;;;;;4954977;29;20408;-76
2021/12/26 13:14:10;;;;;;;10.27;5.30;;;2.00;94.70;;;;;;4955814;28;20303;-76